sensor_id;sensor_type;location;lat;lon;timestamp;pressure;altitude;pressure_sealevel;temperature
61595;BMP280;47397;48.194;11.632;2023-04-01T00:00:44;94731.63;;;8.18
61595;BMP280;47397;48.194;11.632;2023-04-01T00:01:44;94750.88;;;8.22
61595;BMP280;47397;48.194;11.632;2023-04-01T00:02:44;94739.94;;;8.22
61595;BMP280;47397;48.194;11.632;2023-04-01T00:03:45;94743.47;;;8.16
61595;BMP280;47397;48.194;11.632;2023-04-01T00:04:45;94734.34;;;8.12
61595;BMP280;47397;48.194;11.632;2023-04-01T00:05:46;94727.50;;;8.14
61595;BMP280;47397;48.194;11.632;2023-04-01T00:06:47;94737.03;;;8.07
61595;BMP280;47397;48.194;11.632;2023-04-01T00:07:47;94731.75;;;8.13
61595;BMP280;47397;48.194;11.632;2023-04-01T00:08:48;94729.22;;;8.13
61595;BMP280;47397;48.194;11.632;2023-04-01T00:09:48;94730.19;;;8.09
61595;BMP280;47397;48.194;11.632;2023-04-01T00:10:49;94733.81;;;8.02
61595;BMP280;47397;48.194;11.632;2023-04-01T00:11:50;94731.94;;;8.07
61595;BMP280;47397;48.194;11.632;2023-04-01T00:12:51;94732.88;;;8.05
61595;BMP280;47397;48.194;11.632;2023-04-01T00:13:51;94731.09;;;8.08
61595;BMP280;47397;48.194;11.632;2023-04-01T00:14:52;94719.34;;;8.06
61595;BMP280;47397;48.194;11.632;2023-04-01T00:15:52;94721.88;;;8.06
61595;BMP280;47397;48.194;11.632;2023-04-01T00:16:53;94717.69;;;8.05
61595;BMP280;47397;48.194;11.632;2023-04-01T00:17:53;94718.31;;;8.11
61595;BMP280;47397;48.194;11.632;2023-04-01T00:18:54;94720.06;;;8.09
61595;BMP280;47397;48.194;11.632;2023-04-01T00:19:55;94710.13;;;8.05
61595;BMP280;47397;48.194;11.632;2023-04-01T00:20:55;94723.53;;;8.07
61595;BMP280;47397;48.194;11.632;2023-04-01T00:21:56;94707.47;;;8.08
61595;BMP280;47397;48.194;11.632;2023-04-01T00:22:56;94712.69;;;8.03
61595;BMP280;47397;48.194;11.632;2023-04-01T00:23:57;94703.41;;;8.04
61595;BMP280;47397;48.194;11.632;2023-04-01T00:24:57;94706.81;;;8.03
61595;BMP280;47397;48.194;11.632;2023-04-01T00:25:59;94715.06;;;8.08
61595;BMP280;47397;48.194;11.632;2023-04-01T00:27:01;94713.63;;;8.01
61595;BMP280;47397;48.194;11.632;2023-04-01T00:28:01;94719.63;;;7.98
61595;BMP280;47397;48.194;11.632;2023-04-01T00:29:02;94724.72;;;7.97
61595;BMP280;47397;48.194;11.632;2023-04-01T00:30:03;94710.38;;;7.97
61595;BMP280;47397;48.194;11.632;2023-04-01T00:31:05;94706.19;;;7.96
61595;BMP280;47397;48.194;11.632;2023-04-01T00:32:05;94719.72;;;7.95
61595;BMP280;47397;48.194;11.632;2023-04-01T00:33:06;94714.81;;;7.91
61595;BMP280;47397;48.194;11.632;2023-04-01T00:34:06;94724.88;;;7.92
61595;BMP280;47397;48.194;11.632;2023-04-01T00:35:08;94714.97;;;7.86
61595;BMP280;47397;48.194;11.632;2023-04-01T00:36:09;94717.63;;;7.81
61595;BMP280;47397;48.194;11.632;2023-04-01T00:37:10;94714.84;;;7.89
61595;BMP280;47397;48.194;11.632;2023-04-01T00:38:10;94710.53;;;7.93
61595;BMP280;47397;48.194;11.632;2023-04-01T00:39:10;94704.63;;;7.92
61595;BMP280;47397;48.194;11.632;2023-04-01T00:40:24;94709.91;;;7.86
61595;BMP280;47397;48.194;11.632;2023-04-01T00:41:25;94712.28;;;7.91
61595;BMP280;47397;48.194;11.632;2023-04-01T00:42:26;94713.97;;;7.90
61595;BMP280;47397;48.194;11.632;2023-04-01T00:43:27;94715.69;;;7.90
61595;BMP280;47397;48.194;11.632;2023-04-01T00:44:30;94712.38;;;7.88
61595;BMP280;47397;48.194;11.632;2023-04-01T00:45:33;94710.63;;;7.90
61595;BMP280;47397;48.194;11.632;2023-04-01T00:46:34;94715.69;;;7.90
61595;BMP280;47397;48.194;11.632;2023-04-01T00:47:34;94710.63;;;7.90
61595;BMP280;47397;48.194;11.632;2023-04-01T00:48:37;94713.34;;;7.83
61595;BMP280;47397;48.194;11.632;2023-04-01T00:49:40;94713.19;;;7.88
61595;BMP280;47397;48.194;11.632;2023-04-01T00:50:44;94715.00;;;7.84
61595;BMP280;47397;48.194;11.632;2023-04-01T00:51:48;94714.34;;;7.78
61595;BMP280;47397;48.194;11.632;2023-04-01T00:52:50;94711.81;;;7.78
61595;BMP280;47397;48.194;11.632;2023-04-01T00:53:52;94714.22;;;7.82
61595;BMP280;47397;48.194;11.632;2023-04-01T00:54:57;94716.81;;;7.81
61595;BMP280;47397;48.194;11.632;2023-04-01T00:56:01;94717.63;;;7.81
61595;BMP280;47397;48.194;11.632;2023-04-01T00:57:05;94708.25;;;7.85
61595;BMP280;47397;48.194;11.632;2023-04-01T00:58:13;94717.44;;;7.88
61595;BMP280;47397;48.194;11.632;2023-04-01T00:59:18;94715.88;;;7.83
61595;BMP280;47397;48.194;11.632;2023-04-01T01:00:21;94720.16;;;7.81
61595;BMP280;47397;48.194;11.632;2023-04-01T01:01:22;94714.22;;;7.82
61595;BMP280;47397;48.194;11.632;2023-04-01T01:02:24;94708.25;;;7.85
61595;BMP280;47397;48.194;11.632;2023-04-01T01:03:24;94713.41;;;7.82
61595;BMP280;47397;48.194;11.632;2023-04-01T01:04:26;94713.41;;;7.82
61595;BMP280;47397;48.194;11.632;2023-04-01T01:05:38;94714.97;;;7.86
61595;BMP280;47397;48.194;11.632;2023-04-01T01:06:46;94707.31;;;7.88
61595;BMP280;47397;48.194;11.632;2023-04-01T01:07:56;94708.16;;;7.88
61595;BMP280;47397;48.194;11.632;2023-04-01T01:09:18;94720.00;;;7.86
61595;BMP280;47397;48.194;11.632;2023-04-01T01:10:24;94713.41;;;7.82
61595;BMP280;47397;48.194;11.632;2023-04-01T01:11:31;94722.56;;;7.86
61595;BMP280;47397;48.194;11.632;2023-04-01T01:12:36;94716.72;;;7.84
61595;BMP280;47397;48.194;11.632;2023-04-01T01:13:46;94710.78;;;7.85
61595;BMP280;47397;48.194;11.632;2023-04-01T01:14:53;94711.50;;;7.89
61595;BMP280;47397;48.194;11.632;2023-04-01T01:15:58;94710.69;;;7.88
61595;BMP280;47397;48.194;11.632;2023-04-01T01:17:09;94709.91;;;7.86
61595;BMP280;47397;48.194;11.632;2023-04-01T01:18:18;94709.06;;;7.86
61595;BMP280;47397;48.194;11.632;2023-04-01T01:19:33;94713.25;;;7.87
61595;BMP280;47397;48.194;11.632;2023-04-01T01:20:50;94714.84;;;7.89
61595;BMP280;47397;48.194;11.632;2023-04-01T01:23:36;94708.00;;;7.93
61595;BMP280;47397;48.194;11.632;2023-04-01T01:25:04;94712.22;;;7.92
61595;BMP280;47397;48.194;11.632;2023-04-01T01:26:21;94710.94;;;7.80
61595;BMP280;47397;48.194;11.632;2023-04-01T01:27:26;94709.94;;;7.84
61595;BMP280;47397;48.194;11.632;2023-04-01T01:28:36;94704.94;;;7.83
61595;BMP280;47397;48.194;11.632;2023-04-01T01:30:09;94706.75;;;7.78
61595;BMP280;47397;48.194;11.632;2023-04-01T01:31:15;94706.88;;;7.75
61595;BMP280;47397;48.194;11.632;2023-04-01T01:32:34;94706.59;;;7.84
61595;BMP280;47397;48.194;11.632;2023-04-01T01:33:49;94690.72;;;7.79
61595;BMP280;47397;48.194;11.632;2023-04-01T01:34:54;94697.34;;;7.83
61595;BMP280;47397;48.194;11.632;2023-04-01T01:35:58;94704.19;;;7.79
61595;BMP280;47397;48.194;11.632;2023-04-01T01:37:05;94701.53;;;7.84
61595;BMP280;47397;48.194;11.632;2023-04-01T01:38:08;94698.84;;;7.89
61595;BMP280;47397;48.194;11.632;2023-04-01T01:39:12;94698.03;;;7.88
61595;BMP280;47397;48.194;11.632;2023-04-01T01:40:15;94689.72;;;7.84
61595;BMP280;47397;48.194;11.632;2023-04-01T01:41:16;94696.53;;;7.82
61595;BMP280;47397;48.194;11.632;2023-04-01T01:42:19;94698.91;;;7.87
61595;BMP280;47397;48.194;11.632;2023-04-01T01:43:23;94695.66;;;7.83
61595;BMP280;47397;48.194;11.632;2023-04-01T01:44:26;94698.97;;;7.86
61595;BMP280;47397;48.194;11.632;2023-04-01T01:45:29;94706.50;;;7.87
61595;BMP280;47397;48.194;11.632;2023-04-01T01:46:31;94695.44;;;7.90
61595;BMP280;47397;48.194;11.632;2023-04-01T01:47:32;94703.91;;;7.89
61595;BMP280;47397;48.194;11.632;2023-04-01T01:48:34;94678.56;;;7.90
61595;BMP280;47397;48.194;11.632;2023-04-01T01:49:35;94697.09;;;7.91
61595;BMP280;47397;48.194;11.632;2023-04-01T01:50:37;94698.69;;;7.93
61595;BMP280;47397;48.194;11.632;2023-04-01T01:51:40;94695.44;;;7.90
61595;BMP280;47397;48.194;11.632;2023-04-01T01:52:40;94701.19;;;7.95
61595;BMP280;47397;48.194;11.632;2023-04-01T01:53:41;94692.09;;;7.89
61595;BMP280;47397;48.194;11.632;2023-04-01T01:54:47;94690.38;;;7.90
61595;BMP280;47397;48.194;11.632;2023-04-01T01:55:48;94692.03;;;7.91
61595;BMP280;47397;48.194;11.632;2023-04-01T01:56:51;94692.88;;;7.91
61595;BMP280;47397;48.194;11.632;2023-04-01T01:57:57;94698.69;;;7.93
61595;BMP280;47397;48.194;11.632;2023-04-01T01:59:02;94702.06;;;7.94
61595;BMP280;47397;48.194;11.632;2023-04-01T02:00:07;94692.81;;;7.93
61595;BMP280;47397;48.194;11.632;2023-04-01T02:01:12;94697.94;;;7.91
61595;BMP280;47397;48.194;11.632;2023-04-01T02:02:14;94700.41;;;7.93
61595;BMP280;47397;48.194;11.632;2023-04-01T02:03:17;94705.56;;;7.90
61595;BMP280;47397;48.194;11.632;2023-04-01T02:04:20;94696.28;;;7.90
61595;BMP280;47397;48.194;11.632;2023-04-01T02:05:24;94704.69;;;7.91
61595;BMP280;47397;48.194;11.632;2023-04-01T02:06:27;94696.28;;;7.90
61595;BMP280;47397;48.194;11.632;2023-04-01T02:07:32;94707.22;;;7.91
61595;BMP280;47397;48.194;11.632;2023-04-01T02:08:35;94699.59;;;7.92
61595;BMP280;47397;48.194;11.632;2023-04-01T02:09:37;94704.63;;;7.92
61595;BMP280;47397;48.194;11.632;2023-04-01T02:10:39;94715.53;;;7.94
61595;BMP280;47397;48.194;11.632;2023-04-01T02:11:43;94715.47;;;7.96
61595;BMP280;47397;48.194;11.632;2023-04-01T02:12:46;94715.47;;;7.96
61595;BMP280;47397;48.194;11.632;2023-04-01T02:13:51;94711.31;;;7.95
61595;BMP280;47397;48.194;11.632;2023-04-01T02:14:54;94712.19;;;7.94
61595;BMP280;47397;48.194;11.632;2023-04-01T02:15:59;94718.06;;;7.94
61595;BMP280;47397;48.194;11.632;2023-04-01T02:17:04;94714.72;;;7.94
61595;BMP280;47397;48.194;11.632;2023-04-01T02:18:05;94716.34;;;7.95
61595;BMP280;47397;48.194;11.632;2023-04-01T02:19:07;94713.81;;;7.95
61595;BMP280;47397;48.194;11.632;2023-04-01T02:20:11;94722.41;;;7.91
61595;BMP280;47397;48.194;11.632;2023-04-01T02:21:13;94708.91;;;7.90
61595;BMP280;47397;48.194;11.632;2023-04-01T02:22:18;94714.66;;;7.95
61595;BMP280;47397;48.194;11.632;2023-04-01T02:23:21;94718.16;;;7.91
61595;BMP280;47397;48.194;11.632;2023-04-01T02:24:25;94718.06;;;7.94
61595;BMP280;47397;48.194;11.632;2023-04-01T02:25:28;94715.59;;;7.93
61595;BMP280;47397;48.194;11.632;2023-04-01T02:26:29;94721.38;;;7.96
61595;BMP280;47397;48.194;11.632;2023-04-01T02:27:30;94722.25;;;7.95
61595;BMP280;47397;48.194;11.632;2023-04-01T02:28:31;94724.78;;;7.95
61595;BMP280;47397;48.194;11.632;2023-04-01T02:29:32;94722.28;;;7.94
61595;BMP280;47397;48.194;11.632;2023-04-01T02:30:35;94718.00;;;7.96
61595;BMP280;47397;48.194;11.632;2023-04-01T02:31:36;94705.41;;;7.94
61595;BMP280;47397;48.194;11.632;2023-04-01T02:32:38;94719.63;;;7.98
61595;BMP280;47397;48.194;11.632;2023-04-01T02:33:40;94710.41;;;7.96
61595;BMP280;47397;48.194;11.632;2023-04-01T02:34:41;94706.28;;;7.93
61595;BMP280;47397;48.194;11.632;2023-04-01T02:35:42;94715.44;;;7.97
61595;BMP280;47397;48.194;11.632;2023-04-01T02:36:43;94712.06;;;7.97
61595;BMP280;47397;48.194;11.632;2023-04-01T02:37:45;94719.66;;;7.97
61595;BMP280;47397;48.194;11.632;2023-04-01T02:38:48;94717.19;;;7.95
61595;BMP280;47397;48.194;11.632;2023-04-01T02:39:49;94722.97;;;7.99
61595;BMP280;47397;48.194;11.632;2023-04-01T02:40:56;94711.44;;;7.90
61595;BMP280;47397;48.194;11.632;2023-04-01T02:41:56;94715.59;;;7.93
61595;BMP280;47397;48.194;11.632;2023-04-01T02:42:57;94717.97;;;7.97
61595;BMP280;47397;48.194;11.632;2023-04-01T02:43:58;94714.72;;;7.94
61595;BMP280;47397;48.194;11.632;2023-04-01T02:44:58;94718.88;;;7.95
61595;BMP280;47397;48.194;11.632;2023-04-01T02:45:59;94720.69;;;7.91
61595;BMP280;47397;48.194;11.632;2023-04-01T02:46:59;94719.03;;;7.90
61595;BMP280;47397;48.194;11.632;2023-04-01T02:47:59;94723.91;;;7.96
61595;BMP280;47397;48.194;11.632;2023-04-01T02:49:00;94727.97;;;8.00
61595;BMP280;47397;48.194;11.632;2023-04-01T02:50:00;94727.16;;;8.00
61595;BMP280;47397;48.194;11.632;2023-04-01T02:51:01;94728.75;;;8.02
61595;BMP280;47397;48.194;11.632;2023-04-01T02:52:01;94725.44;;;8.00
61595;BMP280;47397;48.194;11.632;2023-04-01T02:53:02;94726.44;;;7.96
61595;BMP280;47397;48.194;11.632;2023-04-01T02:54:04;94725.50;;;7.99
61595;BMP280;47397;48.194;11.632;2023-04-01T02:55:05;94723.78;;;7.99
61595;BMP280;47397;48.194;11.632;2023-04-01T02:56:06;94724.88;;;7.92
61595;BMP280;47397;48.194;11.632;2023-04-01T02:57:06;94723.31;;;7.88
61595;BMP280;47397;48.194;11.632;2023-04-01T02:58:07;94714.97;;;7.86
61595;BMP280;47397;48.194;11.632;2023-04-01T02:59:07;94720.78;;;7.88
61595;BMP280;47397;48.194;11.632;2023-04-01T03:00:09;94725.81;;;7.90
61595;BMP280;47397;48.194;11.632;2023-04-01T03:01:09;94728.19;;;7.94
61595;BMP280;47397;48.194;11.632;2023-04-01T03:02:10;94726.44;;;7.96
61595;BMP280;47397;48.194;11.632;2023-04-01T03:03:10;94730.81;;;7.91
61595;BMP280;47397;48.194;11.632;2023-04-01T03:04:10;94729.84;;;7.95
61595;BMP280;47397;48.194;11.632;2023-04-01T03:05:11;94731.50;;;7.96
61595;BMP280;47397;48.194;11.632;2023-04-01T03:06:13;94724.78;;;7.95
61595;BMP280;47397;48.194;11.632;2023-04-01T03:07:14;94729.94;;;7.92
61595;BMP280;47397;48.194;11.632;2023-04-01T03:08:15;94736.53;;;7.96
61595;BMP280;47397;48.194;11.632;2023-04-01T03:09:16;94730.72;;;7.94
61595;BMP280;47397;48.194;11.632;2023-04-01T03:10:17;94735.81;;;7.93
61595;BMP280;47397;48.194;11.632;2023-04-01T03:11:17;94733.28;;;7.93
61595;BMP280;47397;48.194;11.632;2023-04-01T03:12:18;94736.66;;;7.93
61595;BMP280;47397;48.194;11.632;2023-04-01T03:13:18;94729.94;;;7.92
61595;BMP280;47397;48.194;11.632;2023-04-01T03:14:19;94741.72;;;7.93
61595;BMP280;47397;48.194;11.632;2023-04-01T03:15:19;94731.75;;;7.89
61595;BMP280;47397;48.194;11.632;2023-04-01T03:16:20;94732.50;;;7.91
61595;BMP280;47397;48.194;11.632;2023-04-01T03:17:20;94744.22;;;7.93
61595;BMP280;47397;48.194;11.632;2023-04-01T03:18:20;94729.16;;;7.90
61595;BMP280;47397;48.194;11.632;2023-04-01T03:19:21;94739.03;;;7.98
61595;BMP280;47397;48.194;11.632;2023-04-01T03:20:21;94739.19;;;7.93
61595;BMP280;47397;48.194;11.632;2023-04-01T03:21:23;94735.78;;;7.94
61595;BMP280;47397;48.194;11.632;2023-04-01T03:22:24;94735.91;;;7.90
61595;BMP280;47397;48.194;11.632;2023-04-01T03:23:24;94747.84;;;7.86
61595;BMP280;47397;48.194;11.632;2023-04-01T03:24:26;94744.38;;;7.89
61595;BMP280;47397;48.194;11.632;2023-04-01T03:25:26;94739.22;;;7.92
61595;BMP280;47397;48.194;11.632;2023-04-01T03:26:27;94736.66;;;7.93
61595;BMP280;47397;48.194;11.632;2023-04-01T03:27:27;94736.59;;;7.95
61595;BMP280;47397;48.194;11.632;2023-04-01T03:28:27;94737.72;;;7.86
61595;BMP280;47397;48.194;11.632;2023-04-01T03:29:28;94730.31;;;7.80
61595;BMP280;47397;48.194;11.632;2023-04-01T03:30:28;94732.81;;;7.81
61595;BMP280;47397;48.194;11.632;2023-04-01T03:31:29;94734.47;;;7.82
61595;BMP280;47397;48.194;11.632;2023-04-01T03:32:30;94733.69;;;7.80
61595;BMP280;47397;48.194;11.632;2023-04-01T03:33:30;94738.13;;;7.72
61595;BMP280;47397;48.194;11.632;2023-04-01T03:34:31;94737.41;;;7.69
61595;BMP280;47397;48.194;11.632;2023-04-01T03:35:32;94750.19;;;7.64
61595;BMP280;47397;48.194;11.632;2023-04-01T03:36:32;94743.34;;;7.68
61595;BMP280;47397;48.194;11.632;2023-04-01T03:37:33;94752.69;;;7.66
61595;BMP280;47397;48.194;11.632;2023-04-01T03:38:33;94762.16;;;7.59
61595;BMP280;47397;48.194;11.632;2023-04-01T03:39:35;94753.66;;;7.62
61595;BMP280;47397;48.194;11.632;2023-04-01T03:40:36;94761.13;;;7.65
61595;BMP280;47397;48.194;11.632;2023-04-01T03:41:36;94766.06;;;7.69
61595;BMP280;47397;48.194;11.632;2023-04-01T03:42:37;94757.59;;;7.70
61595;BMP280;47397;48.194;11.632;2023-04-01T03:43:37;94758.56;;;7.66
61595;BMP280;47397;48.194;11.632;2023-04-01T03:44:38;94764.44;;;7.67
61595;BMP280;47397;48.194;11.632;2023-04-01T03:45:43;94766.81;;;7.71
61595;BMP280;47397;48.194;11.632;2023-04-01T03:46:43;94771.97;;;7.68
61595;BMP280;47397;48.194;11.632;2023-04-01T03:47:44;94761.03;;;7.68
61595;BMP280;47397;48.194;11.632;2023-04-01T03:48:44;94768.72;;;7.65
61595;BMP280;47397;48.194;11.632;2023-04-01T03:49:45;94766.25;;;7.63
61595;BMP280;47397;48.194;11.632;2023-04-01T03:50:46;94761.22;;;7.62
61595;BMP280;47397;48.194;11.632;2023-04-01T03:51:47;94765.59;;;7.57
61595;BMP280;47397;48.194;11.632;2023-04-01T03:52:47;94777.41;;;7.56
61595;BMP280;47397;48.194;11.632;2023-04-01T03:53:48;94776.59;;;7.56
61595;BMP280;47397;48.194;11.632;2023-04-01T03:54:50;94774.13;;;7.54
61595;BMP280;47397;48.194;11.632;2023-04-01T03:55:50;94770.75;;;7.53
61595;BMP280;47397;48.194;11.632;2023-04-01T03:56:51;94775.66;;;7.58
61595;BMP280;47397;48.194;11.632;2023-04-01T03:57:51;94772.38;;;7.56
61595;BMP280;47397;48.194;11.632;2023-04-01T03:58:52;94772.19;;;7.62
61595;BMP280;47397;48.194;11.632;2023-04-01T03:59:52;94772.91;;;7.66
61595;BMP280;47397;48.194;11.632;2023-04-01T04:00:52;94780.34;;;7.70
61595;BMP280;47397;48.194;11.632;2023-04-01T04:01:53;94779.91;;;7.58
61595;BMP280;47397;48.194;11.632;2023-04-01T04:02:53;94783.22;;;7.60
61595;BMP280;47397;48.194;11.632;2023-04-01T04:03:54;94779.72;;;7.64
61595;BMP280;47397;48.194;11.632;2023-04-01T04:04:54;94773.09;;;7.60
61595;BMP280;47397;48.194;11.632;2023-04-01T04:05:54;94767.13;;;7.62
61595;BMP280;47397;48.194;11.632;2023-04-01T04:06:55;94768.03;;;7.60
61595;BMP280;47397;48.194;11.632;2023-04-01T04:07:55;94768.09;;;7.58
61595;BMP280;47397;48.194;11.632;2023-04-01T04:08:56;94776.41;;;7.62
61595;BMP280;47397;48.194;11.632;2023-04-01T04:09:58;94776.50;;;7.59
61595;BMP280;47397;48.194;11.632;2023-04-01T04:10:59;94779.25;;;7.51
61595;BMP280;47397;48.194;11.632;2023-04-01T04:12:00;94768.50;;;7.44
61595;BMP280;47397;48.194;11.632;2023-04-01T04:13:00;94769.97;;;7.51
61595;BMP280;47397;48.194;11.632;2023-04-01T04:14:00;94771.59;;;7.54
61595;BMP280;47397;48.194;11.632;2023-04-01T04:15:01;94758.41;;;7.43
61595;BMP280;47397;48.194;11.632;2023-04-01T04:16:02;94778.56;;;7.46
61595;BMP280;47397;48.194;11.632;2023-04-01T04:17:02;94768.50;;;7.44
61595;BMP280;47397;48.194;11.632;2023-04-01T04:18:03;94764.22;;;7.46
61595;BMP280;47397;48.194;11.632;2023-04-01T04:19:04;94768.41;;;7.47
61595;BMP280;47397;48.194;11.632;2023-04-01T04:20:05;94769.97;;;7.51
61595;BMP280;47397;48.194;11.632;2023-04-01T04:21:06;94771.72;;;7.49
61595;BMP280;47397;48.194;11.632;2023-04-01T04:22:06;94770.22;;;7.44
61595;BMP280;47397;48.194;11.632;2023-04-01T04:23:07;94765.06;;;7.47
61595;BMP280;47397;48.194;11.632;2023-04-01T04:24:08;94764.97;;;7.50
61595;BMP280;47397;48.194;11.632;2023-04-01T04:25:10;94773.38;;;7.50
61595;BMP280;47397;48.194;11.632;2023-04-01T04:26:12;94772.50;;;7.51
61595;BMP280;47397;48.194;11.632;2023-04-01T04:27:12;94776.69;;;7.52
61595;BMP280;47397;48.194;11.632;2023-04-01T04:28:13;94772.47;;;7.53
61595;BMP280;47397;48.194;11.632;2023-04-01T04:29:13;94763.22;;;7.52
61595;BMP280;47397;48.194;11.632;2023-04-01T04:30:14;94764.88;;;7.53
61595;BMP280;47397;48.194;11.632;2023-04-01T04:31:18;94772.38;;;7.56
61595;BMP280;47397;48.194;11.632;2023-04-01T04:32:19;94769.16;;;7.51
61595;BMP280;47397;48.194;11.632;2023-04-01T04:33:19;94771.63;;;7.52
61595;BMP280;47397;48.194;11.632;2023-04-01T04:34:20;94776.97;;;7.43
61595;BMP280;47397;48.194;11.632;2023-04-01T04:35:20;94765.09;;;7.45
61595;BMP280;47397;48.194;11.632;2023-04-01T04:36:21;94774.22;;;7.51
61595;BMP280;47397;48.194;11.632;2023-04-01T04:37:21;94769.88;;;7.55
61595;BMP280;47397;48.194;11.632;2023-04-01T04:38:22;94776.09;;;7.43
61595;BMP280;47397;48.194;11.632;2023-04-01T04:39:22;94771.81;;;7.46
61595;BMP280;47397;48.194;11.632;2023-04-01T04:40:24;94775.16;;;7.47
61595;BMP280;47397;48.194;11.632;2023-04-01T04:41:25;94782.66;;;7.50
61595;BMP280;47397;48.194;11.632;2023-04-01T04:42:25;94780.09;;;7.51
61595;BMP280;47397;48.194;11.632;2023-04-01T04:43:25;94785.19;;;7.50
61595;BMP280;47397;48.194;11.632;2023-04-01T04:44:26;94780.00;;;7.55
61595;BMP280;47397;48.194;11.632;2023-04-01T04:45:26;94785.19;;;7.50
61595;BMP280;47397;48.194;11.632;2023-04-01T04:46:27;94786.75;;;7.54
61595;BMP280;47397;48.194;11.632;2023-04-01T04:47:27;94790.78;;;7.60
61595;BMP280;47397;48.194;11.632;2023-04-01T04:48:27;94784.00;;;7.62
61595;BMP280;47397;48.194;11.632;2023-04-01T04:49:28;94783.13;;;7.63
61595;BMP280;47397;48.194;11.632;2023-04-01T04:50:28;94788.94;;;7.65
61595;BMP280;47397;48.194;11.632;2023-04-01T04:51:29;94787.19;;;7.67
61595;BMP280;47397;48.194;11.632;2023-04-01T04:52:29;94788.81;;;7.69
61595;BMP280;47397;48.194;11.632;2023-04-01T04:53:29;94786.28;;;7.69
61595;BMP280;47397;48.194;11.632;2023-04-01T04:54:30;94787.97;;;7.69
61595;BMP280;47397;48.194;11.632;2023-04-01T04:55:32;94791.25;;;7.72
61595;BMP280;47397;48.194;11.632;2023-04-01T04:56:32;94792.94;;;7.72
61595;BMP280;47397;48.194;11.632;2023-04-01T04:57:33;94792.03;;;7.74
61595;BMP280;47397;48.194;11.632;2023-04-01T04:58:33;94786.31;;;7.68
61595;BMP280;47397;48.194;11.632;2023-04-01T04:59:34;94790.47;;;7.70
61595;BMP280;47397;48.194;11.632;2023-04-01T05:00:35;94790.41;;;7.72
61595;BMP280;47397;48.194;11.632;2023-04-01T05:01:35;94799.66;;;7.73
61595;BMP280;47397;48.194;11.632;2023-04-01T05:02:36;94792.94;;;7.72
61595;BMP280;47397;48.194;11.632;2023-04-01T05:03:36;94783.59;;;7.74
61595;BMP280;47397;48.194;11.632;2023-04-01T05:04:37;94792.94;;;7.72
61595;BMP280;47397;48.194;11.632;2023-04-01T05:05:38;94792.91;;;7.73
61595;BMP280;47397;48.194;11.632;2023-04-01T05:06:38;94780.16;;;7.76
61595;BMP280;47397;48.194;11.632;2023-04-01T05:07:39;94790.28;;;7.76
61595;BMP280;47397;48.194;11.632;2023-04-01T05:08:39;94795.22;;;7.81
61595;BMP280;47397;48.194;11.632;2023-04-01T05:09:40;94792.75;;;7.78
61595;BMP280;47397;48.194;11.632;2023-04-01T05:10:42;94788.47;;;7.81
61595;BMP280;47397;48.194;11.632;2023-04-01T05:11:42;94794.34;;;7.82
61595;BMP280;47397;48.194;11.632;2023-04-01T05:12:43;94782.56;;;7.81
61595;BMP280;47397;48.194;11.632;2023-04-01T05:13:44;94799.41;;;7.82
61595;BMP280;47397;48.194;11.632;2023-04-01T05:14:44;94791.81;;;7.82
61595;BMP280;47397;48.194;11.632;2023-04-01T05:15:45;94787.47;;;7.86
61595;BMP280;47397;48.194;11.632;2023-04-01T05:16:45;94786.66;;;7.85
61595;BMP280;47397;48.194;11.632;2023-04-01T05:17:46;94796.69;;;7.88
61595;BMP280;47397;48.194;11.632;2023-04-01T05:18:46;94789.91;;;7.89
61595;BMP280;47397;48.194;11.632;2023-04-01T05:19:47;94789.19;;;7.85
61595;BMP280;47397;48.194;11.632;2023-04-01T05:20:49;94791.66;;;7.87
61595;BMP280;47397;48.194;11.632;2023-04-01T05:21:49;94790.75;;;7.89
61595;BMP280;47397;48.194;11.632;2023-04-01T05:22:49;94791.66;;;7.87
61595;BMP280;47397;48.194;11.632;2023-04-01T05:23:50;94784.84;;;7.89
61595;BMP280;47397;48.194;11.632;2023-04-01T05:24:50;94788.13;;;7.92
61595;BMP280;47397;48.194;11.632;2023-04-01T05:25:52;94794.06;;;7.91
61595;BMP280;47397;48.194;11.632;2023-04-01T05:26:53;94784.81;;;7.90
61595;BMP280;47397;48.194;11.632;2023-04-01T05:27:53;94806.59;;;7.94
61595;BMP280;47397;48.194;11.632;2023-04-01T05:28:54;94791.44;;;7.94
61595;BMP280;47397;48.194;11.632;2023-04-01T05:29:54;94785.50;;;7.95
61595;BMP280;47397;48.194;11.632;2023-04-01T05:30:58;94792.19;;;7.96
61595;BMP280;47397;48.194;11.632;2023-04-01T05:31:58;94787.81;;;8.01
61595;BMP280;47397;48.194;11.632;2023-04-01T05:32:59;94789.53;;;8.01
61595;BMP280;47397;48.194;11.632;2023-04-01T05:33:59;94787.00;;;8.01
61595;BMP280;47397;48.194;11.632;2023-04-01T05:34:59;94791.06;;;8.05
61595;BMP280;47397;48.194;11.632;2023-04-01T05:36:06;94789.44;;;8.04
61595;BMP280;47397;48.194;11.632;2023-04-01T05:37:06;94790.31;;;8.03
61595;BMP280;47397;48.194;11.632;2023-04-01T05:38:07;94776.72;;;8.05
61595;BMP280;47397;48.194;11.632;2023-04-01T05:39:08;94780.84;;;8.08
61595;BMP280;47397;48.194;11.632;2023-04-01T05:40:09;94785.88;;;8.09
61595;BMP280;47397;48.194;11.632;2023-04-01T05:41:11;94787.41;;;8.13
61595;BMP280;47397;48.194;11.632;2023-04-01T05:42:11;94778.94;;;8.14
61595;BMP280;47397;48.194;11.632;2023-04-01T05:43:12;94783.97;;;8.16
61595;BMP280;47397;48.194;11.632;2023-04-01T05:44:13;94782.25;;;8.16
61595;BMP280;47397;48.194;11.632;2023-04-01T05:45:13;94788.19;;;8.15
61595;BMP280;47397;48.194;11.632;2023-04-01T05:46:14;94783.97;;;8.16
61595;BMP280;47397;48.194;11.632;2023-04-01T05:47:14;94782.31;;;8.15
61595;BMP280;47397;48.194;11.632;2023-04-01T05:48:14;94780.03;;;8.07
61595;BMP280;47397;48.194;11.632;2023-04-01T05:49:15;94779.94;;;8.10
61595;BMP280;47397;48.194;11.632;2023-04-01T05:50:16;94782.31;;;8.15
61595;BMP280;47397;48.194;11.632;2023-04-01T05:51:16;94787.31;;;8.18
61595;BMP280;47397;48.194;11.632;2023-04-01T05:52:17;94790.00;;;8.12
61595;BMP280;47397;48.194;11.632;2023-04-01T05:53:17;94785.66;;;8.15
61595;BMP280;47397;48.194;11.632;2023-04-01T05:54:18;94785.50;;;8.22
61595;BMP280;47397;48.194;11.632;2023-04-01T05:55:18;94781.25;;;8.22
61595;BMP280;47397;48.194;11.632;2023-04-01T05:56:20;94785.28;;;8.28
61595;BMP280;47397;48.194;11.632;2023-04-01T05:57:21;94786.03;;;8.31
61595;BMP280;47397;48.194;11.632;2023-04-01T05:58:21;94783.53;;;8.30
61595;BMP280;47397;48.194;11.632;2023-04-01T05:59:21;94788.50;;;8.33